createdAt,value
2023-04-03T00:02:34.237Z,2.83
2023-04-03T00:05:51.900Z,2.78
2023-04-03T00:09:10.151Z,2.82
2023-04-03T00:12:27.155Z,2.78
2023-04-03T00:15:44.564Z,2.71
2023-04-03T00:19:03.224Z,2.62
2023-04-03T00:22:19.585Z,2.49
2023-04-03T00:25:37.504Z,2.56
2023-04-03T00:28:54.128Z,2.47
2023-04-03T00:32:10.527Z,2.46
2023-04-03T00:35:28.738Z,2.45
2023-04-03T00:38:45.283Z,2.45
2023-04-03T00:42:02.223Z,2.42
2023-04-03T00:45:39.557Z,2.48
2023-04-03T00:48:57.584Z,2.47
2023-04-03T00:52:15.749Z,2.43
2023-04-03T00:55:33.574Z,2.40
2023-04-03T00:58:54.836Z,2.40
2023-04-03T01:02:11.601Z,2.38
2023-04-03T01:05:29.602Z,2.24
2023-04-03T01:08:48.758Z,2.22
2023-04-03T01:12:20.231Z,2.25
2023-04-03T01:15:37.902Z,2.10
2023-04-03T01:18:55.384Z,2.10
2023-04-03T01:22:24.385Z,2.11
2023-04-03T01:25:42.655Z,2.07
2023-04-03T01:29:00.025Z,2.08
2023-04-03T01:32:16.760Z,2.05
2023-04-03T01:35:34.857Z,2.06
2023-04-03T01:38:51.912Z,1.99
2023-04-03T01:42:09.486Z,1.92
2023-04-03T01:45:28.003Z,1.87
2023-04-03T01:48:44.892Z,1.90
2023-04-03T01:52:01.367Z,1.88
2023-04-03T01:55:18.977Z,1.87
2023-04-03T01:58:35.332Z,1.88
2023-04-03T02:01:51.883Z,1.80
2023-04-03T02:05:08.210Z,1.83
2023-04-03T02:08:27.270Z,1.84
2023-04-03T02:11:43.792Z,1.81
2023-04-03T02:15:00.891Z,1.80
2023-04-03T02:18:17.964Z,1.89
2023-04-03T02:21:34.747Z,1.93
2023-04-03T02:24:51.028Z,1.90
2023-04-03T02:28:07.744Z,1.94
2023-04-03T02:31:27.266Z,1.99
2023-04-03T02:34:44.129Z,2.01
2023-04-03T02:38:01.801Z,1.99
2023-04-03T02:41:20.464Z,1.99
2023-04-03T02:44:37.916Z,1.93
2023-04-03T02:47:54.399Z,1.91
2023-04-03T02:51:17.923Z,1.89
2023-04-03T02:54:34.660Z,1.85
2023-04-03T02:57:52.711Z,1.84
2023-04-03T03:01:10.331Z,1.80
2023-04-03T03:04:27.865Z,1.88
2023-04-03T03:07:45.813Z,1.83
2023-04-03T03:11:02.279Z,1.72
2023-04-03T03:14:19.330Z,1.70
2023-04-03T03:17:35.651Z,1.68
2023-04-03T03:20:52.776Z,1.67
2023-04-03T03:24:09.645Z,1.71
2023-04-03T03:27:26.654Z,1.67
2023-04-03T03:30:43.089Z,1.60
2023-04-03T03:33:59.479Z,1.55
2023-04-03T03:37:15.917Z,1.59
2023-04-03T03:40:32.454Z,1.71
2023-04-03T03:43:48.827Z,1.67
2023-04-03T03:47:05.756Z,1.70
2023-04-03T03:50:22.734Z,1.68
2023-04-03T03:53:39.642Z,1.66
2023-04-03T03:56:58.322Z,1.67
2023-04-03T04:00:18.629Z,1.77
2023-04-03T04:03:36.839Z,1.69
2023-04-03T04:06:53.748Z,1.68
2023-04-03T04:10:11.120Z,1.64
2023-04-03T04:13:27.634Z,1.64
2023-04-03T04:16:44.277Z,1.58
2023-04-03T04:20:02.593Z,1.58
2023-04-03T04:23:19.257Z,1.59
2023-04-03T04:26:35.708Z,1.49
2023-04-03T04:29:52.409Z,1.48
2023-04-03T04:33:10.393Z,1.48
2023-04-03T04:36:28.006Z,1.47
2023-04-03T04:39:44.716Z,1.39
2023-04-03T04:43:01.310Z,1.44
2023-04-03T04:46:20.632Z,1.30
2023-04-03T04:49:38.775Z,1.21
2023-04-03T04:52:55.284Z,1.31
2023-04-03T04:56:13.036Z,1.26
2023-04-03T04:59:29.784Z,1.32
2023-04-03T05:02:47.655Z,1.36
2023-04-03T05:06:04.346Z,1.27
2023-04-03T05:09:22.123Z,1.29
2023-04-03T05:12:38.964Z,1.39
2023-04-03T05:15:55.592Z,1.38
2023-04-03T05:19:13.014Z,1.43
2023-04-03T05:22:29.445Z,1.39
2023-04-03T05:25:48.949Z,1.36
2023-04-03T05:29:05.928Z,1.32
2023-04-03T05:32:23.185Z,1.36
2023-04-03T05:35:43.330Z,1.35
2023-04-03T05:39:02.717Z,1.31
2023-04-03T05:42:20.147Z,1.29
2023-04-03T05:45:36.807Z,1.33
2023-04-03T05:48:53.760Z,1.27
2023-04-03T05:52:12.024Z,1.33
2023-04-03T05:55:28.757Z,1.27
2023-04-03T05:58:45.410Z,1.24
2023-04-03T06:02:03.054Z,1.26
2023-04-03T06:05:20.762Z,1.25
2023-04-03T06:08:37.303Z,1.22
2023-04-03T06:11:54.100Z,1.18
2023-04-03T06:15:13.805Z,1.19
2023-04-03T06:18:30.433Z,1.12
2023-04-03T06:21:49.450Z,1.16
2023-04-03T06:25:05.972Z,1.12
2023-04-03T06:28:22.900Z,1.08
2023-04-03T06:31:39.878Z,1.09
2023-04-03T06:35:00.402Z,1.09
2023-04-03T06:38:17.195Z,1.23
2023-04-03T06:41:34.811Z,1.31
2023-04-03T06:44:52.505Z,1.35
2023-04-03T06:48:09.080Z,1.40
2023-04-03T06:51:35.364Z,1.43
2023-04-03T06:54:53.734Z,1.40
2023-04-03T06:58:11.467Z,1.45
2023-04-03T07:01:29.526Z,1.55
2023-04-03T07:04:46.301Z,1.54
2023-04-03T07:08:04.878Z,1.53
2023-04-03T07:11:23.547Z,1.57
2023-04-03T07:14:40.229Z,1.54
2023-04-03T07:17:59.717Z,1.49
2023-04-03T07:21:16.922Z,1.60
2023-04-03T07:24:33.868Z,1.61
2023-04-03T07:27:51.155Z,1.58
2023-04-03T07:31:15.274Z,1.69
2023-04-03T07:34:34.911Z,1.87
2023-04-03T07:37:55.280Z,1.98
2023-04-03T07:41:15.390Z,2.00
2023-04-03T07:44:32.852Z,2.65
2023-04-03T07:47:49.997Z,3.28
2023-04-03T07:51:10.627Z,3.23
2023-04-03T07:54:32.299Z,3.52
2023-04-03T07:57:49.390Z,3.63
2023-04-03T08:01:09.407Z,3.84
2023-04-03T08:04:27.406Z,3.79
2023-04-03T08:07:45.754Z,3.96
2023-04-03T08:11:06.834Z,4.00
2023-04-03T08:14:26.431Z,3.95
2023-04-03T08:17:43.180Z,3.54
2023-04-03T08:21:02.362Z,3.81
2023-04-03T08:24:19.296Z,3.35
2023-04-03T08:27:39.027Z,3.13
2023-04-03T08:30:56.159Z,3.30
2023-04-03T08:34:13.537Z,3.31
2023-04-03T08:37:30.129Z,3.04
2023-04-03T08:40:49.512Z,2.89
2023-04-03T08:44:27.102Z,2.96
2023-04-03T08:47:51.240Z,2.64
2023-04-03T08:51:13.962Z,2.71
2023-04-03T08:54:39.565Z,2.78
2023-04-03T08:58:01.121Z,2.64
2023-04-03T09:01:26.771Z,2.61
2023-04-03T09:04:45.237Z,2.57
2023-04-03T09:08:07.796Z,2.47
2023-04-03T09:11:33.150Z,2.33
2023-04-03T09:14:56.927Z,2.37
2023-04-03T09:18:20.124Z,2.37
2023-04-03T09:21:44.162Z,2.41
2023-04-03T09:25:06.189Z,2.26
2023-04-03T09:28:23.108Z,2.33
2023-04-03T09:31:45.054Z,2.24
2023-04-03T09:35:19.091Z,2.21
2023-04-03T09:38:30.170Z,2.30
2023-04-03T09:41:47.007Z,2.23
2023-04-03T09:45:09.991Z,2.00
2023-04-03T09:48:30.249Z,2.05
2023-04-03T09:51:47.608Z,1.94
2023-04-03T09:55:09.541Z,1.90
2023-04-03T09:58:48.987Z,1.86
2023-04-03T10:02:09.001Z,1.93
2023-04-03T10:05:42.897Z,1.80
2023-04-03T10:09:08.356Z,1.96
2023-04-03T10:12:28.647Z,1.99
2023-04-03T10:15:51.442Z,2.11
2023-04-03T10:19:29.265Z,2.13
2023-04-03T10:22:53.270Z,2.21
2023-04-03T10:26:19.409Z,2.25
2023-04-03T10:29:52.889Z,2.13
2023-04-03T10:33:26.590Z,2.10
2023-04-03T10:36:52.204Z,2.20
2023-04-03T10:40:15.973Z,2.26
2023-04-03T10:43:40.673Z,2.26
2023-04-03T10:47:03.033Z,2.34
2023-04-03T10:50:41.646Z,2.45
2023-04-03T10:54:05.973Z,2.46
2023-04-03T10:57:22.901Z,2.41
2023-04-03T11:00:44.661Z,2.39
2023-04-03T11:04:06.075Z,2.47
2023-04-03T11:13:09.678Z,2.68
2023-04-03T11:16:33.711Z,2.82
2023-04-03T11:19:55.069Z,2.95
2023-04-03T11:26:30.624Z,3.16
2023-04-03T11:29:49.634Z,3.17
2023-04-03T11:33:35.891Z,3.57
2023-04-03T11:36:57.572Z,3.68
2023-04-03T11:43:35.557Z,3.39
2023-04-03T11:47:04.869Z,3.34
2023-04-03T11:50:41.141Z,3.37
2023-04-03T11:58:07.751Z,3.84
2023-04-03T12:01:51.342Z,3.89
2023-04-03T12:05:36.599Z,3.97
2023-04-03T12:08:59.371Z,3.96
2023-04-03T12:12:37.143Z,3.93
2023-04-03T12:16:03.566Z,3.82
2023-04-03T12:19:49.445Z,3.73
2023-04-03T12:26:45.866Z,3.68
2023-04-03T12:30:03.809Z,3.59
2023-04-03T12:33:39.232Z,3.64
2023-04-03T12:37:05.380Z,3.53
2023-04-03T12:43:53.034Z,3.57
2023-04-03T12:47:15.339Z,3.68
2023-04-03T12:50:37.912Z,3.76
2023-04-03T12:53:55.614Z,3.88
2023-04-03T12:57:25.703Z,3.89
2023-04-03T13:00:45.349Z,3.91
2023-04-03T13:04:06.194Z,3.96
2023-04-03T13:07:35.422Z,3.94
2023-04-03T13:14:10.088Z,3.66
2023-04-03T13:17:28.017Z,3.66
2023-04-03T13:20:46.202Z,3.70
2023-04-03T13:27:21.014Z,3.77
2023-04-03T13:30:38.538Z,3.76
2023-04-03T13:34:05.204Z,3.75
2023-04-03T13:37:34.795Z,3.76
2023-04-03T13:41:09.201Z,3.79
2023-04-03T13:44:41.440Z,3.75
2023-04-03T13:48:03.477Z,3.77
2023-04-03T13:51:31.232Z,3.74
2023-04-03T13:58:08.402Z,3.62
2023-04-03T14:01:29.259Z,3.63
2023-04-03T14:05:00.381Z,3.68
2023-04-03T14:12:24.310Z,3.76
2023-04-03T14:15:36.568Z,3.68
2023-04-03T14:18:55.000Z,3.71
2023-04-03T14:22:23.486Z,3.75
2023-04-03T14:25:41.207Z,3.77
2023-04-03T14:29:01.321Z,3.80
2023-04-03T14:32:20.367Z,3.78
2023-04-03T14:35:37.055Z,3.82
2023-04-03T14:38:55.413Z,3.81
2023-04-03T14:42:13.079Z,3.79
2023-04-03T14:45:30.844Z,3.86
2023-04-03T14:48:47.257Z,3.87
2023-04-03T14:52:04.066Z,3.84
2023-04-03T14:55:26.073Z,3.82
2023-04-03T14:58:42.838Z,3.86
2023-04-03T15:01:59.973Z,3.86
2023-04-03T15:05:20.920Z,3.82
2023-04-03T15:13:04.903Z,3.63
2023-04-03T15:16:27.726Z,3.67
2023-04-03T15:19:49.727Z,3.64
2023-04-03T15:23:07.492Z,3.63
2023-04-03T15:26:23.773Z,3.64
2023-04-03T15:29:40.696Z,3.56
2023-04-03T15:32:57.405Z,3.55
2023-04-03T15:36:29.211Z,3.52
2023-04-03T15:39:35.646Z,3.54
2023-04-03T15:42:53.234Z,3.56
2023-04-03T15:46:11.010Z,3.53
2023-04-03T15:49:28.070Z,3.56
2023-04-03T15:52:44.668Z,3.57
2023-04-03T15:56:09.786Z,3.55
2023-04-03T15:59:27.571Z,3.50
2023-04-03T16:02:44.503Z,3.51
2023-04-03T16:06:01.802Z,3.40
2023-04-03T16:12:34.112Z,3.34
2023-04-03T16:15:51.490Z,3.34
2023-04-03T16:19:08.303Z,3.31
2023-04-03T16:22:24.939Z,3.22
2023-04-03T16:25:41.961Z,3.21
2023-04-03T16:28:58.727Z,3.19
2023-04-03T16:32:15.441Z,3.17
2023-04-03T16:35:32.868Z,3.11
2023-04-03T16:38:49.126Z,3.13
2023-04-03T16:43:04.096Z,3.12
2023-04-03T16:46:21.226Z,3.04
2023-04-03T16:49:38.579Z,3.02
2023-04-03T16:52:56.116Z,3.02
2023-04-03T16:59:28.340Z,2.94
2023-04-03T17:02:45.436Z,2.93
2023-04-03T17:06:03.072Z,2.93
2023-04-03T17:12:35.488Z,2.88
2023-04-03T17:15:52.650Z,2.87
2023-04-03T17:19:09.406Z,2.83
2023-04-03T17:22:26.194Z,2.85
2023-04-03T17:25:43.917Z,2.81
2023-04-03T17:29:00.896Z,2.81
2023-04-03T17:32:18.525Z,2.82
2023-04-03T17:35:35.636Z,2.80
2023-04-03T17:38:52.922Z,2.75
2023-04-03T17:42:12.919Z,2.72
2023-04-03T17:45:29.751Z,2.73
2023-04-03T17:48:49.600Z,2.71
2023-04-03T17:52:06.591Z,2.66
2023-04-03T17:58:38.306Z,2.57
2023-04-03T18:01:56.860Z,2.59
2023-04-03T18:05:14.971Z,2.57
2023-04-03T18:08:32.072Z,2.54
2023-04-03T18:11:50.256Z,2.40
2023-04-03T18:15:08.153Z,2.37
2023-04-03T18:18:24.997Z,2.29
2023-04-03T18:21:42.978Z,2.16
2023-04-03T18:28:17.681Z,1.98
2023-04-03T18:31:37.678Z,1.90
2023-04-03T18:34:54.309Z,1.79
2023-04-03T18:38:10.942Z,1.66
2023-04-03T18:44:44.405Z,1.39
2023-04-03T18:48:02.182Z,1.33
2023-04-03T18:51:20.360Z,1.35
2023-04-03T18:57:52.417Z,1.29
2023-04-03T19:01:11.537Z,1.16
2023-04-03T19:04:28.215Z,1.16
2023-04-03T19:07:45.614Z,1.21
2023-04-03T19:11:02.297Z,1.20
2023-04-03T19:14:19.425Z,1.20
2023-04-03T19:17:36.469Z,1.19
2023-04-03T19:20:53.404Z,1.13
2023-04-03T19:24:10.190Z,1.16
2023-04-03T19:27:26.607Z,1.17
2023-04-03T19:30:47.350Z,1.22
2023-04-03T19:34:04.696Z,1.29
2023-04-03T19:37:21.408Z,1.27
2023-04-03T19:40:39.150Z,1.29
2023-04-03T19:43:57.062Z,1.23
2023-04-03T19:47:16.460Z,1.38
2023-04-03T19:50:33.841Z,1.41
2023-04-03T19:53:50.340Z,1.44
2023-04-03T19:57:08.052Z,1.49
2023-04-03T20:00:27.833Z,1.58
2023-04-03T20:03:43.257Z,1.63
2023-04-03T20:06:59.460Z,1.63
2023-04-03T20:10:17.936Z,1.71
2023-04-03T20:13:34.674Z,1.68
2023-04-03T20:16:51.095Z,1.76
2023-04-03T20:20:08.647Z,1.78
2023-04-03T20:23:25.157Z,1.70
2023-04-03T20:29:58.736Z,1.71
2023-04-03T20:33:15.422Z,1.78
2023-04-03T20:36:32.756Z,1.81
2023-04-03T20:39:49.244Z,1.81
2023-04-03T20:43:05.546Z,1.81
2023-04-03T20:46:25.530Z,1.83
2023-04-03T20:49:44.383Z,1.86
2023-04-03T20:53:00.740Z,1.85
2023-04-03T20:59:32.665Z,1.79
2023-04-03T21:02:51.525Z,1.77
2023-04-03T21:06:07.049Z,1.70
2023-04-03T21:10:15.262Z,1.60
2023-04-03T21:14:24.311Z,1.68
2023-04-03T21:17:36.628Z,1.65
2023-04-03T21:20:53.305Z,1.63
2023-04-03T21:24:12.938Z,1.66
2023-04-03T21:27:29.353Z,1.69
2023-04-03T21:30:46.497Z,1.61
2023-04-03T21:34:03.109Z,1.56
2023-04-03T21:37:20.052Z,1.65
2023-04-03T21:40:36.947Z,1.67
2023-04-03T21:43:55.227Z,1.64
2023-04-03T21:47:12.489Z,1.60
2023-04-03T21:50:28.825Z,1.58
2023-04-03T21:53:46.647Z,1.50
2023-04-03T21:57:02.921Z,1.50
2023-04-03T22:00:21.324Z,1.52
2023-04-03T22:03:37.969Z,1.47
2023-04-03T22:06:54.425Z,1.43
2023-04-03T22:10:11.779Z,1.47
2023-04-03T22:13:28.247Z,1.49
2023-04-03T22:16:47.515Z,1.45
2023-04-03T22:20:03.813Z,1.45
2023-04-03T22:23:20.197Z,1.49
2023-04-03T22:26:36.422Z,1.44
2023-04-03T22:29:52.863Z,1.58
2023-04-03T22:33:09.620Z,1.65
2023-04-03T22:36:26.281Z,1.71
2023-04-03T22:39:42.680Z,1.75
2023-04-03T22:42:58.952Z,1.78
2023-04-03T22:46:17.182Z,1.80
2023-04-03T22:49:33.949Z,1.79
2023-04-03T22:52:50.601Z,1.82
2023-04-03T22:56:09.610Z,1.83
2023-04-03T22:59:25.900Z,1.85
2023-04-03T23:02:46.098Z,1.84
2023-04-03T23:06:03.632Z,1.85
2023-04-03T23:09:19.957Z,1.84
2023-04-03T23:12:36.573Z,1.85
2023-04-03T23:15:54.726Z,1.81
2023-04-03T23:19:11.207Z,1.79
2023-04-03T23:22:27.555Z,1.75
2023-04-03T23:29:00.143Z,1.76
2023-04-03T23:32:17.636Z,1.73
2023-04-03T23:35:33.985Z,1.72
2023-04-03T23:38:50.296Z,1.67
2023-04-03T23:45:22.833Z,1.44
2023-04-03T23:48:39.341Z,1.46
2023-04-03T23:51:57.398Z,1.42
2023-04-03T23:55:14.839Z,1.39
2023-04-03T23:58:31.285Z,1.35
